Hiawatha, KS

03:34 PM CDT 2017 uztaila ren 26 an (GMT -0500)
Hiawatha, KS | | Change Station

Elev 1135 ft 39.84 °N, 95.53 °W | Updated 0 second ago

Goraki estalia
Goraki estalia
79.0 °F
Feels Like 82 °F
N
4.0
Haizea Aldagarria Haizea from HHE

Gaur
High -- | Low -- °F
--% Chance of Precip.
Yesterday
High -- | Low -- °F
Precip. -- in
Presioa 29.94 in
Ikusgaitasuna 10.0 Miliak
Clouds Few 1600 ft
Dispertsaturik hodeiak 11000 ft
Beroaren maila 82 °F
Ihintzaren maila 72 °F
Afoinua 80%
Rainfall 0.30 in
Snow Depth Not available.
6:15 AM 8:41 PM
Waxing Crescent, 15% visible
METAR KFNB 261953Z AUTO 16007KT 10SM FEW016 SCT110 27/23 A2996 RMK AO2 SLP136 T02670233
Presioa 29.94 in
Ikusgaitasuna 10.0 Miliak
Clouds Few 1600 ft
Dispertsaturik hodeiak 11000 ft
Beroaren maila 82 °F
Ihintzaren maila 72 °F
Afoinua 80%
Rainfall 0.30 in
Snow Depth Not available.
6:15 AM 8:41 PM
Waxing Crescent, 15% visible
METAR KFNB 261953Z AUTO 16007KT 10SM FEW016 SCT110 27/23 A2996 RMK AO2 SLP136 T02670233

Get Severe Weather Alerts

Thanks for signing up!

Be on the lookout for a verification email in your inbox.

You'll start receiving the daily forecast at 6 AM.

×

10-Day Weather Forecast

Almanac

Astronomy

Jul. 26, 2017 Rise Set
Actual Time
Civil Twilight
Nautical Twilight
Astronomical Twilight
Moon
Length Of Visible Light
Length of Day
Tomorrow will be .
, % of the Moon is Illuminated

Today's Extremes

State Highs State Lows

Community

WunderPhotos

Category 6

Welcome to Category 6. This is the collective home for Weather Underground's featured writeups by Dr. Jeff Masters (right), Bob Henson (left), Chris Burt, and other regular contributors.

Nearby

Air Quality

  Air Quality AQ Index Pollutant
Not available.

Snow Depth

Station Depth Elevation

Earthquake Activity

City Distance Mag. Time & Date
Minimum magnitude displayed is 2.5.

Coastal Water Temperatures

Lekua Tenperatura

Stations

Nearby Weather Stations

Station Location Temp Izozki haizeak Ihintzaren maila Afoinua Haizea Precip. Elev Eguneratuta Type
                   

Watches & Warnings

There are currently no watches in effect.